sensor_id;sensor_type;location;lat;lon;timestamp;P1;durP1;ratioP1;P2;durP2;ratioP2
12359;SDS011;6244;51.460;7.090;2023-04-25T00:02:26;9.93;;;5.50;;
12359;SDS011;6244;51.460;7.090;2023-04-25T00:07:24;12.50;;;5.63;;
12359;SDS011;6244;51.460;7.090;2023-04-25T00:12:21;13.20;;;5.82;;
12359;SDS011;6244;51.460;7.090;2023-04-25T00:17:19;8.68;;;3.97;;
12359;SDS011;6244;51.460;7.090;2023-04-25T00:22:16;10.85;;;4.93;;
12359;SDS011;6244;51.460;7.090;2023-04-25T00:27:13;10.98;;;5.72;;
12359;SDS011;6244;51.460;7.090;2023-04-25T00:32:10;14.40;;;4.35;;
12359;SDS011;6244;51.460;7.090;2023-04-25T00:37:07;15.77;;;6.85;;
12359;SDS011;6244;51.460;7.090;2023-04-25T00:42:05;12.48;;;6.22;;
12359;SDS011;6244;51.460;7.090;2023-04-25T00:47:02;12.07;;;5.57;;
12359;SDS011;6244;51.460;7.090;2023-04-25T00:51:58;10.80;;;6.70;;
12359;SDS011;6244;51.460;7.090;2023-04-25T00:56:56;8.88;;;5.47;;
12359;SDS011;6244;51.460;7.090;2023-04-25T01:01:53;12.40;;;6.20;;
12359;SDS011;6244;51.460;7.090;2023-04-25T01:06:50;9.45;;;5.35;;
12359;SDS011;6244;51.460;7.090;2023-04-25T01:11:47;8.38;;;4.93;;
12359;SDS011;6244;51.460;7.090;2023-04-25T01:16:46;14.15;;;7.07;;
12359;SDS011;6244;51.460;7.090;2023-04-25T01:21:44;13.35;;;6.55;;
12359;SDS011;6244;51.460;7.090;2023-04-25T01:26:41;10.52;;;6.22;;
12359;SDS011;6244;51.460;7.090;2023-04-25T01:31:44;10.13;;;5.63;;
12359;SDS011;6244;51.460;7.090;2023-04-25T01:36:41;14.13;;;7.05;;
12359;SDS011;6244;51.460;7.090;2023-04-25T01:41:39;13.40;;;7.28;;
12359;SDS011;6244;51.460;7.090;2023-04-25T01:46:36;12.27;;;7.07;;
12359;SDS011;6244;51.460;7.090;2023-04-25T01:51:33;15.23;;;7.20;;
12359;SDS011;6244;51.460;7.090;2023-04-25T01:56:30;13.75;;;6.65;;
12359;SDS011;6244;51.460;7.090;2023-04-25T02:01:28;9.63;;;5.97;;
12359;SDS011;6244;51.460;7.090;2023-04-25T02:06:25;12.00;;;5.43;;
12359;SDS011;6244;51.460;7.090;2023-04-25T02:11:21;9.57;;;5.40;;
12359;SDS011;6244;51.460;7.090;2023-04-25T02:16:18;11.85;;;6.20;;
12359;SDS011;6244;51.460;7.090;2023-04-25T02:21:16;11.13;;;7.18;;
12359;SDS011;6244;51.460;7.090;2023-04-25T02:26:12;12.73;;;6.10;;
12359;SDS011;6244;51.460;7.090;2023-04-25T02:31:09;9.07;;;5.47;;
12359;SDS011;6244;51.460;7.090;2023-04-25T02:36:06;10.93;;;6.18;;
12359;SDS011;6244;51.460;7.090;2023-04-25T02:41:04;12.00;;;6.97;;
12359;SDS011;6244;51.460;7.090;2023-04-25T02:46:01;12.82;;;6.88;;
12359;SDS011;6244;51.460;7.090;2023-04-25T02:50:57;13.85;;;6.57;;
12359;SDS011;6244;51.460;7.090;2023-04-25T02:55:54;15.30;;;6.07;;
12359;SDS011;6244;51.460;7.090;2023-04-25T03:00:54;14.93;;;6.15;;
12359;SDS011;6244;51.460;7.090;2023-04-25T03:05:51;13.07;;;5.30;;
12359;SDS011;6244;51.460;7.090;2023-04-25T03:10:47;13.23;;;5.50;;
12359;SDS011;6244;51.460;7.090;2023-04-25T03:15:45;16.23;;;5.95;;
12359;SDS011;6244;51.460;7.090;2023-04-25T03:20:43;12.68;;;6.45;;
12359;SDS011;6244;51.460;7.090;2023-04-25T03:25:40;11.82;;;5.18;;
12359;SDS011;6244;51.460;7.090;2023-04-25T03:30:36;12.63;;;5.93;;
12359;SDS011;6244;51.460;7.090;2023-04-25T03:35:33;10.38;;;5.50;;
12359;SDS011;6244;51.460;7.090;2023-04-25T03:40:30;15.52;;;6.32;;
12359;SDS011;6244;51.460;7.090;2023-04-25T03:45:27;17.55;;;6.80;;
12359;SDS011;6244;51.460;7.090;2023-04-25T03:50:24;16.50;;;6.50;;
12359;SDS011;6244;51.460;7.090;2023-04-25T03:55:21;11.90;;;5.50;;
12359;SDS011;6244;51.460;7.090;2023-04-25T04:00:18;11.70;;;5.07;;
12359;SDS011;6244;51.460;7.090;2023-04-25T04:05:15;12.73;;;5.35;;
12359;SDS011;6244;51.460;7.090;2023-04-25T04:10:12;16.20;;;5.53;;
12359;SDS011;6244;51.460;7.090;2023-04-25T04:15:08;15.73;;;6.05;;
12359;SDS011;6244;51.460;7.090;2023-04-25T04:20:07;11.75;;;5.32;;
12359;SDS011;6244;51.460;7.090;2023-04-25T04:25:05;9.23;;;4.55;;
12359;SDS011;6244;51.460;7.090;2023-04-25T04:30:02;7.57;;;3.63;;
12359;SDS011;6244;51.460;7.090;2023-04-25T04:34:59;9.18;;;3.90;;
12359;SDS011;6244;51.460;7.090;2023-04-25T04:39:57;6.68;;;3.97;;
12359;SDS011;6244;51.460;7.090;2023-04-25T04:44:53;8.43;;;4.28;;
12359;SDS011;6244;51.460;7.090;2023-04-25T04:49:50;10.23;;;4.95;;
12359;SDS011;6244;51.460;7.090;2023-04-25T04:54:46;10.00;;;5.75;;
12359;SDS011;6244;51.460;7.090;2023-04-25T04:59:45;10.98;;;5.38;;
12359;SDS011;6244;51.460;7.090;2023-04-25T05:04:42;11.48;;;6.18;;
12359;SDS011;6244;51.460;7.090;2023-04-25T05:09:39;15.75;;;7.47;;
12359;SDS011;6244;51.460;7.090;2023-04-25T05:14:35;13.30;;;6.88;;
12359;SDS011;6244;51.460;7.090;2023-04-25T05:19:33;11.32;;;6.05;;
12359;SDS011;6244;51.460;7.090;2023-04-25T05:24:30;14.23;;;6.32;;
12359;SDS011;6244;51.460;7.090;2023-04-25T05:29:26;15.55;;;6.53;;
12359;SDS011;6244;51.460;7.090;2023-04-25T05:34:23;14.70;;;6.25;;
12359;SDS011;6244;51.460;7.090;2023-04-25T05:39:21;14.50;;;6.95;;
12359;SDS011;6244;51.460;7.090;2023-04-25T05:44:17;15.30;;;6.40;;
12359;SDS011;6244;51.460;7.090;2023-04-25T05:49:14;16.40;;;6.22;;
12359;SDS011;6244;51.460;7.090;2023-04-25T05:54:10;13.02;;;5.53;;
12359;SDS011;6244;51.460;7.090;2023-04-25T05:59:08;15.07;;;5.70;;
12359;SDS011;6244;51.460;7.090;2023-04-25T06:04:05;13.13;;;5.20;;
12359;SDS011;6244;51.460;7.090;2023-04-25T06:09:01;14.32;;;6.18;;
12359;SDS011;6244;51.460;7.090;2023-04-25T06:13:58;16.90;;;5.93;;
12359;SDS011;6244;51.460;7.090;2023-04-25T06:18:56;16.65;;;5.25;;
12359;SDS011;6244;51.460;7.090;2023-04-25T06:23:52;13.35;;;6.53;;
12359;SDS011;6244;51.460;7.090;2023-04-25T06:28:49;15.77;;;6.15;;
12359;SDS011;6244;51.460;7.090;2023-04-25T06:33:45;11.05;;;6.35;;
12359;SDS011;6244;51.460;7.090;2023-04-25T06:38:44;12.32;;;5.68;;
12359;SDS011;6244;51.460;7.090;2023-04-25T06:43:41;15.00;;;5.38;;
12359;SDS011;6244;51.460;7.090;2023-04-25T06:48:37;13.65;;;5.63;;
12359;SDS011;6244;51.460;7.090;2023-04-25T06:53:34;12.40;;;6.10;;
12359;SDS011;6244;51.460;7.090;2023-04-25T06:58:32;14.05;;;4.85;;
12359;SDS011;6244;51.460;7.090;2023-04-25T07:03:28;13.25;;;4.85;;
12359;SDS011;6244;51.460;7.090;2023-04-25T07:08:25;7.45;;;3.10;;
12359;SDS011;6244;51.460;7.090;2023-04-25T07:13:21;6.63;;;3.05;;
12359;SDS011;6244;51.460;7.090;2023-04-25T07:18:19;7.55;;;3.03;;
12359;SDS011;6244;51.460;7.090;2023-04-25T07:23:16;5.55;;;3.25;;
12359;SDS011;6244;51.460;7.090;2023-04-25T07:28:12;4.15;;;2.90;;
12359;SDS011;6244;51.460;7.090;2023-04-25T07:33:09;9.85;;;3.65;;
12359;SDS011;6244;51.460;7.090;2023-04-25T07:38:06;11.57;;;3.63;;
12359;SDS011;6244;51.460;7.090;2023-04-25T07:43:05;10.75;;;3.92;;
12359;SDS011;6244;51.460;7.090;2023-04-25T07:48:01;10.63;;;3.78;;
12359;SDS011;6244;51.460;7.090;2023-04-25T07:52:58;7.88;;;3.70;;
12359;SDS011;6244;51.460;7.090;2023-04-25T07:57:56;8.25;;;4.05;;
12359;SDS011;6244;51.460;7.090;2023-04-25T08:02:52;10.00;;;4.05;;
12359;SDS011;6244;51.460;7.090;2023-04-25T08:07:49;13.38;;;3.40;;
12359;SDS011;6244;51.460;7.090;2023-04-25T08:12:45;9.20;;;3.55;;
12359;SDS011;6244;51.460;7.090;2023-04-25T08:17:43;5.40;;;2.92;;
12359;SDS011;6244;51.460;7.090;2023-04-25T08:22:40;8.77;;;3.03;;
12359;SDS011;6244;51.460;7.090;2023-04-25T08:27:36;5.97;;;2.50;;
12359;SDS011;6244;51.460;7.090;2023-04-25T08:32:33;5.90;;;2.40;;
12359;SDS011;6244;51.460;7.090;2023-04-25T08:37:31;5.88;;;3.70;;
12359;SDS011;6244;51.460;7.090;2023-04-25T08:42:27;10.15;;;3.35;;
12359;SDS011;6244;51.460;7.090;2023-04-25T08:47:26;8.60;;;3.10;;
12359;SDS011;6244;51.460;7.090;2023-04-25T08:52:24;10.88;;;3.30;;
12359;SDS011;6244;51.460;7.090;2023-04-25T08:57:27;8.45;;;3.25;;
12359;SDS011;6244;51.460;7.090;2023-04-25T09:02:25;6.72;;;3.10;;
12359;SDS011;6244;51.460;7.090;2023-04-25T09:07:22;6.75;;;3.20;;
12359;SDS011;6244;51.460;7.090;2023-04-25T09:12:20;6.18;;;3.20;;
12359;SDS011;6244;51.460;7.090;2023-04-25T09:17:18;5.43;;;2.97;;
12359;SDS011;6244;51.460;7.090;2023-04-25T09:22:15;7.25;;;2.70;;
12359;SDS011;6244;51.460;7.090;2023-04-25T09:27:17;7.95;;;3.40;;
12359;SDS011;6244;51.460;7.090;2023-04-25T09:32:20;6.32;;;2.13;;
12359;SDS011;6244;51.460;7.090;2023-04-25T09:37:18;6.47;;;2.53;;
12359;SDS011;6244;51.460;7.090;2023-04-25T09:42:16;6.28;;;2.55;;
12359;SDS011;6244;51.460;7.090;2023-04-25T09:47:14;6.00;;;2.88;;
12359;SDS011;6244;51.460;7.090;2023-04-25T09:52:14;8.43;;;3.47;;
12359;SDS011;6244;51.460;7.090;2023-04-25T09:57:13;6.32;;;2.75;;
12359;SDS011;6244;51.460;7.090;2023-04-25T10:02:11;3.88;;;2.50;;
12359;SDS011;6244;51.460;7.090;2023-04-25T10:07:08;6.72;;;2.78;;
12359;SDS011;6244;51.460;7.090;2023-04-25T10:12:07;5.57;;;2.35;;
12359;SDS011;6244;51.460;7.090;2023-04-25T10:17:04;6.25;;;2.50;;
12359;SDS011;6244;51.460;7.090;2023-04-25T10:22:03;4.55;;;2.63;;
12359;SDS011;6244;51.460;7.090;2023-04-25T10:27:03;6.93;;;2.60;;
12359;SDS011;6244;51.460;7.090;2023-04-25T10:32:02;4.55;;;2.65;;
12359;SDS011;6244;51.460;7.090;2023-04-25T10:36:59;4.43;;;2.70;;
12359;SDS011;6244;51.460;7.090;2023-04-25T10:41:58;5.20;;;2.17;;
12359;SDS011;6244;51.460;7.090;2023-04-25T10:46:58;4.60;;;2.90;;
12359;SDS011;6244;51.460;7.090;2023-04-25T10:57:28;7.35;;;2.60;;
12359;SDS011;6244;51.460;7.090;2023-04-25T11:02:26;5.38;;;2.70;;
12359;SDS011;6244;51.460;7.090;2023-04-25T11:07:26;5.65;;;2.60;;
12359;SDS011;6244;51.460;7.090;2023-04-25T11:12:31;5.55;;;3.15;;
12359;SDS011;6244;51.460;7.090;2023-04-25T11:17:28;5.05;;;2.90;;
12359;SDS011;6244;51.460;7.090;2023-04-25T11:22:26;6.90;;;2.47;;
12359;SDS011;6244;51.460;7.090;2023-04-25T11:27:23;5.93;;;2.50;;
12359;SDS011;6244;51.460;7.090;2023-04-25T11:32:22;6.70;;;2.80;;
12359;SDS011;6244;51.460;7.090;2023-04-25T11:37:19;7.90;;;2.72;;
12359;SDS011;6244;51.460;7.090;2023-04-25T11:42:16;3.50;;;2.15;;
12359;SDS011;6244;51.460;7.090;2023-04-25T11:47:12;4.95;;;1.92;;
12359;SDS011;6244;51.460;7.090;2023-04-25T11:52:10;4.68;;;2.08;;
12359;SDS011;6244;51.460;7.090;2023-04-25T11:57:07;4.50;;;1.73;;
12359;SDS011;6244;51.460;7.090;2023-04-25T12:02:03;2.38;;;1.75;;
12359;SDS011;6244;51.460;7.090;2023-04-25T12:07:02;3.70;;;2.20;;
12359;SDS011;6244;51.460;7.090;2023-04-25T12:12:00;4.07;;;1.90;;
12359;SDS011;6244;51.460;7.090;2023-04-25T12:16:59;7.63;;;2.50;;
12359;SDS011;6244;51.460;7.090;2023-04-25T12:21:56;5.55;;;2.47;;
12359;SDS011;6244;51.460;7.090;2023-04-25T12:26:53;3.95;;;2.33;;
12359;SDS011;6244;51.460;7.090;2023-04-25T12:31:55;3.03;;;2.13;;
12359;SDS011;6244;51.460;7.090;2023-04-25T12:36:52;6.18;;;2.33;;
12359;SDS011;6244;51.460;7.090;2023-04-25T12:41:49;5.55;;;2.70;;
12359;SDS011;6244;51.460;7.090;2023-04-25T12:46:47;6.82;;;2.33;;
12359;SDS011;6244;51.460;7.090;2023-04-25T12:51:45;4.97;;;2.35;;
12359;SDS011;6244;51.460;7.090;2023-04-25T12:56:41;4.90;;;2.33;;
12359;SDS011;6244;51.460;7.090;2023-04-25T13:01:38;6.20;;;2.40;;
12359;SDS011;6244;51.460;7.090;2023-04-25T13:06:34;3.78;;;2.47;;
12359;SDS011;6244;51.460;7.090;2023-04-25T13:11:32;4.30;;;2.03;;
12359;SDS011;6244;51.460;7.090;2023-04-25T13:16:29;4.30;;;2.25;;
12359;SDS011;6244;51.460;7.090;2023-04-25T13:21:25;7.63;;;2.90;;
12359;SDS011;6244;51.460;7.090;2023-04-25T13:26:22;4.00;;;2.05;;
12359;SDS011;6244;51.460;7.090;2023-04-25T13:31:20;4.97;;;2.63;;
12359;SDS011;6244;51.460;7.090;2023-04-25T13:36:16;4.85;;;2.10;;
12359;SDS011;6244;51.460;7.090;2023-04-25T13:41:13;6.45;;;2.50;;
12359;SDS011;6244;51.460;7.090;2023-04-25T13:46:13;4.25;;;2.40;;
12359;SDS011;6244;51.460;7.090;2023-04-25T13:51:12;6.00;;;2.33;;
12359;SDS011;6244;51.460;7.090;2023-04-25T13:56:10;4.10;;;2.50;;
12359;SDS011;6244;51.460;7.090;2023-04-25T14:01:07;7.28;;;2.20;;
12359;SDS011;6244;51.460;7.090;2023-04-25T14:06:04;6.93;;;2.20;;
12359;SDS011;6244;51.460;7.090;2023-04-25T14:11:02;4.88;;;2.20;;
12359;SDS011;6244;51.460;7.090;2023-04-25T14:15:58;4.28;;;1.95;;
12359;SDS011;6244;51.460;7.090;2023-04-25T14:20:55;5.28;;;2.20;;
12359;SDS011;6244;51.460;7.090;2023-04-25T14:25:51;2.75;;;1.85;;
12359;SDS011;6244;51.460;7.090;2023-04-25T14:30:49;2.15;;;1.45;;
12359;SDS011;6244;51.460;7.090;2023-04-25T14:35:46;3.80;;;1.80;;
12359;SDS011;6244;51.460;7.090;2023-04-25T14:40:42;2.90;;;1.58;;
12359;SDS011;6244;51.460;7.090;2023-04-25T14:45:39;5.20;;;2.45;;
12359;SDS011;6244;51.460;7.090;2023-04-25T14:50:37;2.45;;;1.67;;
12359;SDS011;6244;51.460;7.090;2023-04-25T14:55:34;2.00;;;1.58;;
12359;SDS011;6244;51.460;7.090;2023-04-25T15:00:31;4.75;;;1.90;;
12359;SDS011;6244;51.460;7.090;2023-04-25T15:05:28;5.45;;;1.98;;
12359;SDS011;6244;51.460;7.090;2023-04-25T15:10:26;3.85;;;2.10;;
12359;SDS011;6244;51.460;7.090;2023-04-25T15:15:22;2.55;;;1.88;;
12359;SDS011;6244;51.460;7.090;2023-04-25T15:20:19;5.13;;;2.15;;
12359;SDS011;6244;51.460;7.090;2023-04-25T15:25:15;4.10;;;2.10;;
12359;SDS011;6244;51.460;7.090;2023-04-25T15:30:15;4.63;;;2.38;;
12359;SDS011;6244;51.460;7.090;2023-04-25T15:35:12;4.03;;;2.00;;
12359;SDS011;6244;51.460;7.090;2023-04-25T15:40:10;5.18;;;2.58;;
12359;SDS011;6244;51.460;7.090;2023-04-25T15:45:08;4.53;;;2.28;;
12359;SDS011;6244;51.460;7.090;2023-04-25T15:50:08;4.88;;;2.15;;
12359;SDS011;6244;51.460;7.090;2023-04-25T15:55:05;3.17;;;1.85;;
12359;SDS011;6244;51.460;7.090;2023-04-25T16:00:03;2.30;;;1.95;;
12359;SDS011;6244;51.460;7.090;2023-04-25T16:05:05;3.88;;;1.88;;
12359;SDS011;6244;51.460;7.090;2023-04-25T16:10:03;3.17;;;1.90;;
12359;SDS011;6244;51.460;7.090;2023-04-25T16:15:00;5.22;;;2.80;;
12359;SDS011;6244;51.460;7.090;2023-04-25T16:19:57;3.33;;;2.20;;
12359;SDS011;6244;51.460;7.090;2023-04-25T16:24:55;4.88;;;2.22;;
12359;SDS011;6244;51.460;7.090;2023-04-25T16:29:53;5.20;;;2.42;;
12359;SDS011;6244;51.460;7.090;2023-04-25T16:34:50;3.33;;;1.95;;
12359;SDS011;6244;51.460;7.090;2023-04-25T16:39:46;4.60;;;1.90;;
12359;SDS011;6244;51.460;7.090;2023-04-25T16:44:43;5.18;;;2.70;;
12359;SDS011;6244;51.460;7.090;2023-04-25T16:49:40;5.30;;;2.70;;
12359;SDS011;6244;51.460;7.090;2023-04-25T16:54:37;5.20;;;2.42;;
12359;SDS011;6244;51.460;7.090;2023-04-25T16:59:33;3.78;;;2.78;;
12359;SDS011;6244;51.460;7.090;2023-04-25T17:04:30;8.35;;;2.90;;
12359;SDS011;6244;51.460;7.090;2023-04-25T17:09:28;3.78;;;2.20;;
12359;SDS011;6244;51.460;7.090;2023-04-25T17:14:25;3.70;;;2.38;;
12359;SDS011;6244;51.460;7.090;2023-04-25T17:19:22;4.60;;;2.33;;
12359;SDS011;6244;51.460;7.090;2023-04-25T17:24:18;6.40;;;2.65;;
12359;SDS011;6244;51.460;7.090;2023-04-25T17:29:17;4.80;;;2.50;;
12359;SDS011;6244;51.460;7.090;2023-04-25T17:34:15;4.57;;;2.40;;
12359;SDS011;6244;51.460;7.090;2023-04-25T17:39:12;4.40;;;2.50;;
12359;SDS011;6244;51.460;7.090;2023-04-25T17:44:12;8.15;;;2.97;;
12359;SDS011;6244;51.460;7.090;2023-04-25T17:49:10;6.70;;;2.97;;
12359;SDS011;6244;51.460;7.090;2023-04-25T17:54:06;4.75;;;2.70;;
12359;SDS011;6244;51.460;7.090;2023-04-25T17:59:04;8.23;;;3.00;;
12359;SDS011;6244;51.460;7.090;2023-04-25T18:04:01;5.95;;;2.42;;
12359;SDS011;6244;51.460;7.090;2023-04-25T18:08:59;5.78;;;2.60;;
12359;SDS011;6244;51.460;7.090;2023-04-25T18:13:56;7.18;;;2.78;;
12359;SDS011;6244;51.460;7.090;2023-04-25T18:18:53;5.43;;;2.67;;
12359;SDS011;6244;51.460;7.090;2023-04-25T18:24:00;6.22;;;2.67;;
12359;SDS011;6244;51.460;7.090;2023-04-25T18:28:56;7.63;;;3.00;;
12359;SDS011;6244;51.460;7.090;2023-04-25T18:33:53;9.65;;;2.65;;
12359;SDS011;6244;51.460;7.090;2023-04-25T18:38:50;5.15;;;2.60;;
12359;SDS011;6244;51.460;7.090;2023-04-25T18:43:50;4.10;;;2.65;;
12359;SDS011;6244;51.460;7.090;2023-04-25T18:48:47;5.78;;;3.03;;
12359;SDS011;6244;51.460;7.090;2023-04-25T18:53:44;6.75;;;3.00;;
12359;SDS011;6244;51.460;7.090;2023-04-25T18:58:41;6.68;;;3.53;;
12359;SDS011;6244;51.460;7.090;2023-04-25T19:03:39;9.75;;;3.83;;
12359;SDS011;6244;51.460;7.090;2023-04-25T19:08:35;6.65;;;3.90;;
12359;SDS011;6244;51.460;7.090;2023-04-25T19:13:32;7.40;;;3.97;;
12359;SDS011;6244;51.460;7.090;2023-04-25T19:18:29;9.90;;;3.67;;
12359;SDS011;6244;51.460;7.090;2023-04-25T19:23:27;6.22;;;3.85;;
12359;SDS011;6244;51.460;7.090;2023-04-25T19:28:25;5.57;;;3.15;;
12359;SDS011;6244;51.460;7.090;2023-04-25T19:33:23;5.82;;;3.75;;
12359;SDS011;6244;51.460;7.090;2023-04-25T19:38:20;7.00;;;3.50;;
12359;SDS011;6244;51.460;7.090;2023-04-25T19:43:18;6.75;;;3.40;;
12359;SDS011;6244;51.460;7.090;2023-04-25T19:48:14;5.55;;;2.85;;
12359;SDS011;6244;51.460;7.090;2023-04-25T19:53:11;6.82;;;3.58;;
12359;SDS011;6244;51.460;7.090;2023-04-25T19:58:07;3.83;;;2.65;;
12359;SDS011;6244;51.460;7.090;2023-04-25T20:03:05;12.35;;;5.55;;
12359;SDS011;6244;51.460;7.090;2023-04-25T20:08:01;9.77;;;5.88;;
12359;SDS011;6244;51.460;7.090;2023-04-25T20:12:58;5.50;;;3.45;;
12359;SDS011;6244;51.460;7.090;2023-04-25T20:17:55;4.53;;;3.25;;
12359;SDS011;6244;51.460;7.090;2023-04-25T20:22:53;7.88;;;4.18;;
12359;SDS011;6244;51.460;7.090;2023-04-25T20:27:50;8.90;;;3.75;;
12359;SDS011;6244;51.460;7.090;2023-04-25T20:32:46;8.63;;;4.13;;
12359;SDS011;6244;51.460;7.090;2023-04-25T20:37:44;4.30;;;3.10;;
12359;SDS011;6244;51.460;7.090;2023-04-25T20:42:42;6.05;;;3.42;;
12359;SDS011;6244;51.460;7.090;2023-04-25T20:47:40;6.03;;;3.53;;
12359;SDS011;6244;51.460;7.090;2023-04-25T20:52:38;7.65;;;3.17;;
12359;SDS011;6244;51.460;7.090;2023-04-25T20:57:35;7.40;;;3.40;;
12359;SDS011;6244;51.460;7.090;2023-04-25T21:02:33;6.43;;;3.95;;
12359;SDS011;6244;51.460;7.090;2023-04-25T21:07:30;8.82;;;4.00;;
12359;SDS011;6244;51.460;7.090;2023-04-25T21:12:26;8.65;;;4.25;;
12359;SDS011;6244;51.460;7.090;2023-04-25T21:17:23;6.40;;;3.75;;
12359;SDS011;6244;51.460;7.090;2023-04-25T21:22:21;6.38;;;3.58;;
12359;SDS011;6244;51.460;7.090;2023-04-25T21:27:17;8.80;;;4.00;;
12359;SDS011;6244;51.460;7.090;2023-04-25T21:32:14;5.38;;;3.20;;
12359;SDS011;6244;51.460;7.090;2023-04-25T21:37:14;5.88;;;3.03;;
12359;SDS011;6244;51.460;7.090;2023-04-25T21:42:12;10.05;;;4.50;;
12359;SDS011;6244;51.460;7.090;2023-04-25T21:47:09;8.60;;;3.80;;
12359;SDS011;6244;51.460;7.090;2023-04-25T21:52:06;5.95;;;3.28;;
12359;SDS011;6244;51.460;7.090;2023-04-25T21:57:03;7.35;;;3.22;;
12359;SDS011;6244;51.460;7.090;2023-04-25T22:02:04;4.45;;;3.17;;
12359;SDS011;6244;51.460;7.090;2023-04-25T22:07:01;6.93;;;3.17;;
12359;SDS011;6244;51.460;7.090;2023-04-25T22:11:58;9.00;;;3.10;;
12359;SDS011;6244;51.460;7.090;2023-04-25T22:16:56;5.40;;;3.00;;
12359;SDS011;6244;51.460;7.090;2023-04-25T22:21:54;5.38;;;3.08;;
12359;SDS011;6244;51.460;7.090;2023-04-25T22:26:51;8.02;;;3.50;;
12359;SDS011;6244;51.460;7.090;2023-04-25T22:31:48;6.28;;;3.20;;
12359;SDS011;6244;51.460;7.090;2023-04-25T22:36:44;7.68;;;2.97;;
12359;SDS011;6244;51.460;7.090;2023-04-25T22:41:42;7.20;;;3.47;;
12359;SDS011;6244;51.460;7.090;2023-04-25T22:46:39;7.35;;;3.92;;
12359;SDS011;6244;51.460;7.090;2023-04-25T22:51:36;9.93;;;3.63;;
12359;SDS011;6244;51.460;7.090;2023-04-25T22:56:32;8.90;;;4.05;;
12359;SDS011;6244;51.460;7.090;2023-04-25T23:01:31;7.10;;;3.85;;
12359;SDS011;6244;51.460;7.090;2023-04-25T23:06:28;8.80;;;4.38;;
12359;SDS011;6244;51.460;7.090;2023-04-25T23:11:25;7.15;;;3.55;;
12359;SDS011;6244;51.460;7.090;2023-04-25T23:16:22;6.78;;;3.95;;
12359;SDS011;6244;51.460;7.090;2023-04-25T23:21:20;6.38;;;3.47;;
12359;SDS011;6244;51.460;7.090;2023-04-25T23:26:16;7.88;;;3.80;;
12359;SDS011;6244;51.460;7.090;2023-04-25T23:31:15;9.13;;;3.80;;
12359;SDS011;6244;51.460;7.090;2023-04-25T23:36:15;8.88;;;3.72;;
12359;SDS011;6244;51.460;7.090;2023-04-25T23:41:15;7.80;;;3.47;;
12359;SDS011;6244;51.460;7.090;2023-04-25T23:46:12;10.95;;;5.53;;
12359;SDS011;6244;51.460;7.090;2023-04-25T23:51:08;8.95;;;4.50;;
12359;SDS011;6244;51.460;7.090;2023-04-25T23:56:05;5.80;;;3.50;;
